sensor_id;sensor_type;location;lat;lon;timestamp;temperature;humidity
25450;DHT22;13371;52.080;5.624;2023-03-11T00:00:23;4.70;99.90
25450;DHT22;13371;52.080;5.624;2023-03-11T00:02:52;4.50;99.90
25450;DHT22;13371;52.080;5.624;2023-03-11T00:05:24;4.50;99.90
25450;DHT22;13371;52.080;5.624;2023-03-11T00:07:50;4.60;99.90
25450;DHT22;13371;52.080;5.624;2023-03-11T00:10:19;4.60;99.90
25450;DHT22;13371;52.080;5.624;2023-03-11T00:12:45;4.60;99.90
25450;DHT22;13371;52.080;5.624;2023-03-11T00:15:11;4.70;99.90
25450;DHT22;13371;52.080;5.624;2023-03-11T00:17:37;4.70;99.90
25450;DHT22;13371;52.080;5.624;2023-03-11T00:20:03;4.80;99.90
25450;DHT22;13371;52.080;5.624;2023-03-11T00:22:31;4.70;99.90
25450;DHT22;13371;52.080;5.624;2023-03-11T00:24:57;4.70;99.90
25450;DHT22;13371;52.080;5.624;2023-03-11T00:27:22;4.70;99.90
25450;DHT22;13371;52.080;5.624;2023-03-11T00:29:48;4.60;99.90
25450;DHT22;13371;52.080;5.624;2023-03-11T00:32:13;4.20;99.90
25450;DHT22;13371;52.080;5.624;2023-03-11T00:34:39;4.40;99.90
25450;DHT22;13371;52.080;5.624;2023-03-11T00:37:04;4.40;99.90
25450;DHT22;13371;52.080;5.624;2023-03-11T00:39:30;4.60;99.90
25450;DHT22;13371;52.080;5.624;2023-03-11T00:41:56;4.60;99.90
25450;DHT22;13371;52.080;5.624;2023-03-11T00:44:22;4.70;99.90
25450;DHT22;13371;52.080;5.624;2023-03-11T00:46:47;4.40;99.90
25450;DHT22;13371;52.080;5.624;2023-03-11T00:49:13;4.60;99.90
25450;DHT22;13371;52.080;5.624;2023-03-11T00:51:38;4.70;99.90
25450;DHT22;13371;52.080;5.624;2023-03-11T00:54:04;4.80;99.90
25450;DHT22;13371;52.080;5.624;2023-03-11T00:56:30;4.70;99.90
25450;DHT22;13371;52.080;5.624;2023-03-11T00:58:55;4.70;99.90
25450;DHT22;13371;52.080;5.624;2023-03-11T01:01:21;4.70;99.90
25450;DHT22;13371;52.080;5.624;2023-03-11T01:03:47;4.60;99.80
25450;DHT22;13371;52.080;5.624;2023-03-11T01:06:12;4.80;99.90
25450;DHT22;13371;52.080;5.624;2023-03-11T01:08:38;4.90;99.80
25450;DHT22;13371;52.080;5.624;2023-03-11T01:11:05;4.80;99.60
25450;DHT22;13371;52.080;5.624;2023-03-11T01:13:31;4.80;99.40
25450;DHT22;13371;52.080;5.624;2023-03-11T01:15:57;4.80;99.30
25450;DHT22;13371;52.080;5.624;2023-03-11T01:18:24;4.90;99.50
25450;DHT22;13371;52.080;5.624;2023-03-11T01:20:50;4.90;99.40
25450;DHT22;13371;52.080;5.624;2023-03-11T01:23:17;5.00;99.30
25450;DHT22;13371;52.080;5.624;2023-03-11T01:25:43;5.00;99.20
25450;DHT22;13371;52.080;5.624;2023-03-11T01:28:09;5.00;99.10
25450;DHT22;13371;52.080;5.624;2023-03-11T01:30:37;5.00;99.20
25450;DHT22;13371;52.080;5.624;2023-03-11T01:33:04;4.90;99.30
25450;DHT22;13371;52.080;5.624;2023-03-11T01:35:31;5.00;99.40
25450;DHT22;13371;52.080;5.624;2023-03-11T01:37:57;5.10;99.30
25450;DHT22;13371;52.080;5.624;2023-03-11T01:40:33;5.00;99.30
25450;DHT22;13371;52.080;5.624;2023-03-11T01:43:01;5.00;99.40
25450;DHT22;13371;52.080;5.624;2023-03-11T01:46:13;5.00;99.40
25450;DHT22;13371;52.080;5.624;2023-03-11T01:48:39;5.10;99.30
25450;DHT22;13371;52.080;5.624;2023-03-11T01:51:06;5.00;99.20
25450;DHT22;13371;52.080;5.624;2023-03-11T01:53:33;5.00;99.50
25450;DHT22;13371;52.080;5.624;2023-03-11T01:56:03;5.10;99.30
25450;DHT22;13371;52.080;5.624;2023-03-11T01:58:34;5.20;99.30
25450;DHT22;13371;52.080;5.624;2023-03-11T02:01:00;5.20;99.20
25450;DHT22;13371;52.080;5.624;2023-03-11T02:03:30;5.30;98.70
25450;DHT22;13371;52.080;5.624;2023-03-11T02:05:59;5.30;99.00
25450;DHT22;13371;52.080;5.624;2023-03-11T02:08:25;5.30;99.10
25450;DHT22;13371;52.080;5.624;2023-03-11T02:10:52;5.30;99.00
25450;DHT22;13371;52.080;5.624;2023-03-11T02:13:18;5.20;98.90
25450;DHT22;13371;52.080;5.624;2023-03-11T02:15:44;5.20;98.90
25450;DHT22;13371;52.080;5.624;2023-03-11T02:18:12;5.30;98.90
25450;DHT22;13371;52.080;5.624;2023-03-11T02:23:13;5.20;98.90
25450;DHT22;13371;52.080;5.624;2023-03-11T02:28:42;5.30;98.90
25450;DHT22;13371;52.080;5.624;2023-03-11T02:31:09;5.20;98.80
25450;DHT22;13371;52.080;5.624;2023-03-11T02:33:36;5.20;98.90
25450;DHT22;13371;52.080;5.624;2023-03-11T02:36:02;5.20;98.60
25450;DHT22;13371;52.080;5.624;2023-03-11T02:38:28;5.30;98.70
25450;DHT22;13371;52.080;5.624;2023-03-11T02:40:56;5.20;98.30
25450;DHT22;13371;52.080;5.624;2023-03-11T02:43:34;5.30;98.50
25450;DHT22;13371;52.080;5.624;2023-03-11T02:46:01;5.10;98.20
25450;DHT22;13371;52.080;5.624;2023-03-11T02:48:29;5.20;98.70
25450;DHT22;13371;52.080;5.624;2023-03-11T02:50:55;5.10;98.70
25450;DHT22;13371;52.080;5.624;2023-03-11T02:53:21;5.20;98.70
25450;DHT22;13371;52.080;5.624;2023-03-11T02:55:47;5.30;98.40
25450;DHT22;13371;52.080;5.624;2023-03-11T02:58:12;5.40;98.20
25450;DHT22;13371;52.080;5.624;2023-03-11T03:00:38;5.40;98.10
25450;DHT22;13371;52.080;5.624;2023-03-11T03:03:04;5.30;98.00
25450;DHT22;13371;52.080;5.624;2023-03-11T03:05:30;5.40;97.90
25450;DHT22;13371;52.080;5.624;2023-03-11T03:07:55;5.40;98.00
25450;DHT22;13371;52.080;5.624;2023-03-11T03:10:23;5.50;97.80
25450;DHT22;13371;52.080;5.624;2023-03-11T03:12:49;5.40;97.50
25450;DHT22;13371;52.080;5.624;2023-03-11T03:15:15;5.40;97.60
25450;DHT22;13371;52.080;5.624;2023-03-11T03:17:40;5.40;97.50
25450;DHT22;13371;52.080;5.624;2023-03-11T03:20:06;5.40;97.60
25450;DHT22;13371;52.080;5.624;2023-03-11T03:22:37;5.30;97.50
25450;DHT22;13371;52.080;5.624;2023-03-11T03:25:04;5.40;97.50
25450;DHT22;13371;52.080;5.624;2023-03-11T03:27:30;5.30;97.40
25450;DHT22;13371;52.080;5.624;2023-03-11T03:29:55;5.40;97.20
25450;DHT22;13371;52.080;5.624;2023-03-11T03:32:21;5.30;97.30
25450;DHT22;13371;52.080;5.624;2023-03-11T03:34:47;5.20;97.40
25450;DHT22;13371;52.080;5.624;2023-03-11T03:37:12;5.20;97.30
25450;DHT22;13371;52.080;5.624;2023-03-11T03:39:38;5.20;97.50
25450;DHT22;13371;52.080;5.624;2023-03-11T03:42:03;5.30;97.40
25450;DHT22;13371;52.080;5.624;2023-03-11T03:44:29;5.30;97.30
25450;DHT22;13371;52.080;5.624;2023-03-11T03:46:55;5.20;97.20
25450;DHT22;13371;52.080;5.624;2023-03-11T03:49:20;5.10;97.10
25450;DHT22;13371;52.080;5.624;2023-03-11T03:51:46;5.00;97.40
25450;DHT22;13371;52.080;5.624;2023-03-11T03:54:11;5.10;97.40
25450;DHT22;13371;52.080;5.624;2023-03-11T03:56:37;5.20;97.30
25450;DHT22;13371;52.080;5.624;2023-03-11T03:59:03;5.00;97.30
25450;DHT22;13371;52.080;5.624;2023-03-11T04:01:28;5.10;97.60
25450;DHT22;13371;52.080;5.624;2023-03-11T04:03:54;5.10;97.40
25450;DHT22;13371;52.080;5.624;2023-03-11T04:06:22;5.00;97.50
25450;DHT22;13371;52.080;5.624;2023-03-11T04:08:50;5.00;97.60
25450;DHT22;13371;52.080;5.624;2023-03-11T04:11:16;5.00;97.50
25450;DHT22;13371;52.080;5.624;2023-03-11T04:13:41;4.90;97.60
25450;DHT22;13371;52.080;5.624;2023-03-11T04:16:11;5.00;97.50
25450;DHT22;13371;52.080;5.624;2023-03-11T04:18:39;5.00;97.40
25450;DHT22;13371;52.080;5.624;2023-03-11T04:21:05;4.90;97.50
25450;DHT22;13371;52.080;5.624;2023-03-11T04:23:31;4.90;97.50
25450;DHT22;13371;52.080;5.624;2023-03-11T04:25:57;4.80;97.70
25450;DHT22;13371;52.080;5.624;2023-03-11T04:28:23;4.90;97.60
25450;DHT22;13371;52.080;5.624;2023-03-11T04:30:48;4.90;97.60
25450;DHT22;13371;52.080;5.624;2023-03-11T04:33:14;4.90;97.70
25450;DHT22;13371;52.080;5.624;2023-03-11T04:35:40;4.80;97.50
25450;DHT22;13371;52.080;5.624;2023-03-11T04:38:05;4.80;97.60
25450;DHT22;13371;52.080;5.624;2023-03-11T04:40:31;4.90;97.80
25450;DHT22;13371;52.080;5.624;2023-03-11T04:42:56;4.90;97.60
25450;DHT22;13371;52.080;5.624;2023-03-11T04:45:22;4.90;97.90
25450;DHT22;13371;52.080;5.624;2023-03-11T04:47:50;4.90;97.80
25450;DHT22;13371;52.080;5.624;2023-03-11T04:50:16;5.00;97.90
25450;DHT22;13371;52.080;5.624;2023-03-11T04:52:42;4.90;97.90
25450;DHT22;13371;52.080;5.624;2023-03-11T04:55:08;4.90;97.80
25450;DHT22;13371;52.080;5.624;2023-03-11T04:57:34;4.90;97.80
25450;DHT22;13371;52.080;5.624;2023-03-11T05:00:00;5.00;97.70
25450;DHT22;13371;52.080;5.624;2023-03-11T05:02:26;4.90;97.90
25450;DHT22;13371;52.080;5.624;2023-03-11T05:04:51;4.90;97.80
25450;DHT22;13371;52.080;5.624;2023-03-11T05:07:17;4.80;97.70
25450;DHT22;13371;52.080;5.624;2023-03-11T05:09:42;4.70;97.80
25450;DHT22;13371;52.080;5.624;2023-03-11T05:12:10;4.90;97.50
25450;DHT22;13371;52.080;5.624;2023-03-11T05:14:36;4.90;97.50
25450;DHT22;13371;52.080;5.624;2023-03-11T05:17:02;4.70;97.60
25450;DHT22;13371;52.080;5.624;2023-03-11T05:19:28;4.70;97.40
25450;DHT22;13371;52.080;5.624;2023-03-11T05:21:57;4.60;97.60
25450;DHT22;13371;52.080;5.624;2023-03-11T05:24:22;4.50;97.30
25450;DHT22;13371;52.080;5.624;2023-03-11T05:26:50;4.40;97.50
25450;DHT22;13371;52.080;5.624;2023-03-11T05:29:16;4.50;97.30
25450;DHT22;13371;52.080;5.624;2023-03-11T05:31:42;4.50;97.50
25450;DHT22;13371;52.080;5.624;2023-03-11T05:34:07;4.50;97.30
25450;DHT22;13371;52.080;5.624;2023-03-11T05:36:33;4.30;97.40
25450;DHT22;13371;52.080;5.624;2023-03-11T05:38:59;4.40;97.60
25450;DHT22;13371;52.080;5.624;2023-03-11T05:41:24;4.40;97.30
25450;DHT22;13371;52.080;5.624;2023-03-11T05:43:50;4.30;97.30
25450;DHT22;13371;52.080;5.624;2023-03-11T05:46:15;4.30;97.50
25450;DHT22;13371;52.080;5.624;2023-03-11T05:48:41;4.30;97.50
25450;DHT22;13371;52.080;5.624;2023-03-11T05:51:08;4.30;97.50
25450;DHT22;13371;52.080;5.624;2023-03-11T05:53:34;4.30;97.40
25450;DHT22;13371;52.080;5.624;2023-03-11T05:56:00;4.30;97.40
25450;DHT22;13371;52.080;5.624;2023-03-11T05:58:30;4.40;97.30
25450;DHT22;13371;52.080;5.624;2023-03-11T06:00:56;4.30;97.10
25450;DHT22;13371;52.080;5.624;2023-03-11T06:03:23;4.30;97.20
25450;DHT22;13371;52.080;5.624;2023-03-11T06:05:49;4.30;97.00
25450;DHT22;13371;52.080;5.624;2023-03-11T06:08:15;4.20;97.10
25450;DHT22;13371;52.080;5.624;2023-03-11T06:10:41;4.40;97.10
25450;DHT22;13371;52.080;5.624;2023-03-11T06:13:08;4.10;97.20
25450;DHT22;13371;52.080;5.624;2023-03-11T06:15:34;4.10;97.50
25450;DHT22;13371;52.080;5.624;2023-03-11T06:18:00;4.00;97.40
25450;DHT22;13371;52.080;5.624;2023-03-11T06:20:26;3.80;97.30
25450;DHT22;13371;52.080;5.624;2023-03-11T06:22:52;3.90;98.10
25450;DHT22;13371;52.080;5.624;2023-03-11T06:25:17;3.90;97.90
25450;DHT22;13371;52.080;5.624;2023-03-11T06:27:43;4.00;97.90
25450;DHT22;13371;52.080;5.624;2023-03-11T06:30:13;3.80;97.30
25450;DHT22;13371;52.080;5.624;2023-03-11T06:32:38;3.90;97.90
25450;DHT22;13371;52.080;5.624;2023-03-11T06:35:04;3.90;97.70
25450;DHT22;13371;52.080;5.624;2023-03-11T06:37:30;3.90;97.90
25450;DHT22;13371;52.080;5.624;2023-03-11T06:39:55;3.70;97.90
25450;DHT22;13371;52.080;5.624;2023-03-11T06:42:21;3.40;98.80
25450;DHT22;13371;52.080;5.624;2023-03-11T06:44:51;3.80;98.50
25450;DHT22;13371;52.080;5.624;2023-03-11T06:47:16;3.30;99.20
25450;DHT22;13371;52.080;5.624;2023-03-11T06:49:42;3.40;98.70
25450;DHT22;13371;52.080;5.624;2023-03-11T06:52:08;3.50;99.30
25450;DHT22;13371;52.080;5.624;2023-03-11T06:54:34;3.70;98.90
25450;DHT22;13371;52.080;5.624;2023-03-11T06:57:00;3.70;98.80
25450;DHT22;13371;52.080;5.624;2023-03-11T06:59:26;3.70;98.60
25450;DHT22;13371;52.080;5.624;2023-03-11T07:01:53;3.60;98.40
25450;DHT22;13371;52.080;5.624;2023-03-11T07:04:19;3.70;98.60
25450;DHT22;13371;52.080;5.624;2023-03-11T07:06:44;3.90;98.50
25450;DHT22;13371;52.080;5.624;2023-03-11T07:09:10;3.90;98.50
25450;DHT22;13371;52.080;5.624;2023-03-11T07:11:36;3.70;99.30
25450;DHT22;13371;52.080;5.624;2023-03-11T07:14:02;3.80;98.80
25450;DHT22;13371;52.080;5.624;2023-03-11T07:16:29;3.90;99.20
25450;DHT22;13371;52.080;5.624;2023-03-11T07:18:57;4.00;99.20
25450;DHT22;13371;52.080;5.624;2023-03-11T07:21:23;4.20;99.30
25450;DHT22;13371;52.080;5.624;2023-03-11T07:23:54;4.30;99.30
25450;DHT22;13371;52.080;5.624;2023-03-11T07:26:20;4.50;99.20
25450;DHT22;13371;52.080;5.624;2023-03-11T07:28:46;4.70;98.90
25450;DHT22;13371;52.080;5.624;2023-03-11T07:31:19;4.50;98.20
25450;DHT22;13371;52.080;5.624;2023-03-11T07:33:45;4.60;99.30
25450;DHT22;13371;52.080;5.624;2023-03-11T07:36:13;4.80;99.40
25450;DHT22;13371;52.080;5.624;2023-03-11T07:38:39;5.00;99.20
25450;DHT22;13371;52.080;5.624;2023-03-11T07:41:05;5.00;98.30
25450;DHT22;13371;52.080;5.624;2023-03-11T07:43:31;5.10;99.20
25450;DHT22;13371;52.080;5.624;2023-03-11T07:46:12;5.20;99.00
25450;DHT22;13371;52.080;5.624;2023-03-11T07:48:39;5.40;98.80
25450;DHT22;13371;52.080;5.624;2023-03-11T07:51:08;5.80;99.60
25450;DHT22;13371;52.080;5.624;2023-03-11T07:53:34;6.20;99.90
25450;DHT22;13371;52.080;5.624;2023-03-11T07:56:00;6.50;99.90
25450;DHT22;13371;52.080;5.624;2023-03-11T07:58:26;6.80;99.90
25450;DHT22;13371;52.080;5.624;2023-03-11T08:00:52;6.80;98.70
25450;DHT22;13371;52.080;5.624;2023-03-11T08:03:19;6.90;99.70
25450;DHT22;13371;52.080;5.624;2023-03-11T08:05:44;7.00;99.90
25450;DHT22;13371;52.080;5.624;2023-03-11T08:08:10;7.10;99.50
25450;DHT22;13371;52.080;5.624;2023-03-11T08:10:36;7.30;99.40
25450;DHT22;13371;52.080;5.624;2023-03-11T08:13:02;7.70;99.90
25450;DHT22;13371;52.080;5.624;2023-03-11T08:15:28;8.10;99.90
25450;DHT22;13371;52.080;5.624;2023-03-11T08:17:53;8.30;99.10
25450;DHT22;13371;52.080;5.624;2023-03-11T08:20:19;8.70;99.00
25450;DHT22;13371;52.080;5.624;2023-03-11T08:22:44;9.20;99.90
25450;DHT22;13371;52.080;5.624;2023-03-11T08:25:10;9.40;97.00
25450;DHT22;13371;52.080;5.624;2023-03-11T08:27:35;9.30;94.30
25450;DHT22;13371;52.080;5.624;2023-03-11T08:30:01;9.50;94.20
25450;DHT22;13371;52.080;5.624;2023-03-11T08:32:27;9.50;94.10
25450;DHT22;13371;52.080;5.624;2023-03-11T08:34:56;9.50;92.40
25450;DHT22;13371;52.080;5.624;2023-03-11T08:37:22;9.30;91.10
25450;DHT22;13371;52.080;5.624;2023-03-11T08:39:47;9.60;92.20
25450;DHT22;13371;52.080;5.624;2023-03-11T08:42:13;9.80;90.80
25450;DHT22;13371;52.080;5.624;2023-03-11T08:44:38;10.30;92.20
25450;DHT22;13371;52.080;5.624;2023-03-11T08:47:04;10.70;93.20
25450;DHT22;13371;52.080;5.624;2023-03-11T08:49:30;10.90;90.60
25450;DHT22;13371;52.080;5.624;2023-03-11T08:51:55;10.90;88.30
25450;DHT22;13371;52.080;5.624;2023-03-11T08:54:21;11.10;87.00
25450;DHT22;13371;52.080;5.624;2023-03-11T08:56:47;11.10;86.30
25450;DHT22;13371;52.080;5.624;2023-03-11T08:59:13;11.10;86.40
25450;DHT22;13371;52.080;5.624;2023-03-11T09:01:39;11.20;87.40
25450;DHT22;13371;52.080;5.624;2023-03-11T09:04:05;11.30;87.00
25450;DHT22;13371;52.080;5.624;2023-03-11T09:06:30;11.50;86.90
25450;DHT22;13371;52.080;5.624;2023-03-11T09:08:56;11.70;90.00
25450;DHT22;13371;52.080;5.624;2023-03-11T09:11:22;11.90;85.30
25450;DHT22;13371;52.080;5.624;2023-03-11T09:13:48;11.20;82.10
25450;DHT22;13371;52.080;5.624;2023-03-11T09:16:17;11.60;83.60
25450;DHT22;13371;52.080;5.624;2023-03-11T09:18:44;11.50;81.20
25450;DHT22;13371;52.080;5.624;2023-03-11T09:21:10;10.80;80.60
25450;DHT22;13371;52.080;5.624;2023-03-11T09:23:36;11.10;85.40
25450;DHT22;13371;52.080;5.624;2023-03-11T09:26:01;11.30;84.40
25450;DHT22;13371;52.080;5.624;2023-03-11T09:28:27;11.60;86.00
25450;DHT22;13371;52.080;5.624;2023-03-11T09:30:52;11.60;83.30
25450;DHT22;13371;52.080;5.624;2023-03-11T09:33:18;11.40;79.10
25450;DHT22;13371;52.080;5.624;2023-03-11T09:35:44;10.90;79.00
25450;DHT22;13371;52.080;5.624;2023-03-11T09:38:10;10.80;83.00
25450;DHT22;13371;52.080;5.624;2023-03-11T09:43:54;10.80;80.50
25450;DHT22;13371;52.080;5.624;2023-03-11T09:46:33;10.00;79.50
25450;DHT22;13371;52.080;5.624;2023-03-11T09:51:57;9.50;81.80
25450;DHT22;13371;52.080;5.624;2023-03-11T09:54:27;9.90;88.50
25450;DHT22;13371;52.080;5.624;2023-03-11T09:56:55;9.80;79.90
25450;DHT22;13371;52.080;5.624;2023-03-11T09:59:30;10.30;89.90
25450;DHT22;13371;52.080;5.624;2023-03-11T10:01:58;10.40;82.30
25450;DHT22;13371;52.080;5.624;2023-03-11T10:04:41;10.80;85.90
25450;DHT22;13371;52.080;5.624;2023-03-11T10:07:13;10.80;84.00
25450;DHT22;13371;52.080;5.624;2023-03-11T10:09:56;11.30;86.10
25450;DHT22;13371;52.080;5.624;2023-03-11T10:12:54;11.30;79.00
25450;DHT22;13371;52.080;5.624;2023-03-11T10:15:42;11.50;82.40
25450;DHT22;13371;52.080;5.624;2023-03-11T10:18:17;12.00;82.80
25450;DHT22;13371;52.080;5.624;2023-03-11T10:21:09;11.50;79.60
25450;DHT22;13371;52.080;5.624;2023-03-11T10:24:11;11.70;86.60
25450;DHT22;13371;52.080;5.624;2023-03-11T10:26:44;11.90;80.80
25450;DHT22;13371;52.080;5.624;2023-03-11T10:32:23;12.00;86.90
25450;DHT22;13371;52.080;5.624;2023-03-11T10:35:04;11.60;82.90
25450;DHT22;13371;52.080;5.624;2023-03-11T10:37:38;11.50;83.80
25450;DHT22;13371;52.080;5.624;2023-03-11T10:42:50;11.60;83.70
25450;DHT22;13371;52.080;5.624;2023-03-11T10:45:16;11.70;84.00
25450;DHT22;13371;52.080;5.624;2023-03-11T10:47:44;11.60;84.00
25450;DHT22;13371;52.080;5.624;2023-03-11T10:50:16;11.90;84.30
25450;DHT22;13371;52.080;5.624;2023-03-11T10:53:09;11.80;79.00
25450;DHT22;13371;52.080;5.624;2023-03-11T10:55:35;10.60;80.00
25450;DHT22;13371;52.080;5.624;2023-03-11T10:58:18;10.60;83.30
25450;DHT22;13371;52.080;5.624;2023-03-11T11:00:43;11.00;86.00
25450;DHT22;13371;52.080;5.624;2023-03-11T11:03:36;11.00;82.50
25450;DHT22;13371;52.080;5.624;2023-03-11T11:06:08;10.30;79.00
25450;DHT22;13371;52.080;5.624;2023-03-11T11:08:43;10.50;86.40
25450;DHT22;13371;52.080;5.624;2023-03-11T11:11:20;11.10;89.80
25450;DHT22;13371;52.080;5.624;2023-03-11T11:13:56;11.70;91.30
25450;DHT22;13371;52.080;5.624;2023-03-11T11:16:22;11.90;86.20
25450;DHT22;13371;52.080;5.624;2023-03-11T11:19:11;11.50;81.90
25450;DHT22;13371;52.080;5.624;2023-03-11T11:21:39;11.10;80.00
25450;DHT22;13371;52.080;5.624;2023-03-11T11:24:24;11.10;87.20
25450;DHT22;13371;52.080;5.624;2023-03-11T11:27:24;11.00;87.50
25450;DHT22;13371;52.080;5.624;2023-03-11T11:30:15;10.90;81.30
25450;DHT22;13371;52.080;5.624;2023-03-11T11:32:41;11.40;83.90
25450;DHT22;13371;52.080;5.624;2023-03-11T11:35:12;11.40;81.50
25450;DHT22;13371;52.080;5.624;2023-03-11T11:37:41;11.60;77.90
25450;DHT22;13371;52.080;5.624;2023-03-11T11:43:02;11.30;83.50
25450;DHT22;13371;52.080;5.624;2023-03-11T11:45:37;11.10;85.60
25450;DHT22;13371;52.080;5.624;2023-03-11T11:50:35;11.40;80.70
25450;DHT22;13371;52.080;5.624;2023-03-11T11:53:10;11.90;78.30
25450;DHT22;13371;52.080;5.624;2023-03-11T11:55:40;12.20;84.20
25450;DHT22;13371;52.080;5.624;2023-03-11T11:58:09;12.50;81.40
25450;DHT22;13371;52.080;5.624;2023-03-11T12:00:49;11.80;77.00
25450;DHT22;13371;52.080;5.624;2023-03-11T12:06:04;11.60;72.80
25450;DHT22;13371;52.080;5.624;2023-03-11T12:08:41;11.80;75.20
25450;DHT22;13371;52.080;5.624;2023-03-11T12:11:17;11.60;77.60
25450;DHT22;13371;52.080;5.624;2023-03-11T12:21:49;11.60;74.60
25450;DHT22;13371;52.080;5.624;2023-03-11T12:26:45;11.30;78.00
25450;DHT22;13371;52.080;5.624;2023-03-11T12:29:28;11.60;80.80
25450;DHT22;13371;52.080;5.624;2023-03-11T12:31:56;11.20;73.30
25450;DHT22;13371;52.080;5.624;2023-03-11T12:34:23;11.30;76.60
25450;DHT22;13371;52.080;5.624;2023-03-11T12:36:50;11.00;76.40
25450;DHT22;13371;52.080;5.624;2023-03-11T12:39:29;11.10;77.50
25450;DHT22;13371;52.080;5.624;2023-03-11T12:44:41;10.80;75.70
25450;DHT22;13371;52.080;5.624;2023-03-11T12:52:18;11.50;73.50
25450;DHT22;13371;52.080;5.624;2023-03-11T13:08:50;11.50;75.70
25450;DHT22;13371;52.080;5.624;2023-03-11T13:13:50;11.20;72.50
25450;DHT22;13371;52.080;5.624;2023-03-11T13:18:47;10.90;71.30
25450;DHT22;13371;52.080;5.624;2023-03-11T13:32:08;10.60;77.50
25450;DHT22;13371;52.080;5.624;2023-03-11T13:37:15;10.80;72.30
25450;DHT22;13371;52.080;5.624;2023-03-11T13:42:39;10.40;74.60
25450;DHT22;13371;52.080;5.624;2023-03-11T13:45:16;10.60;74.60
25450;DHT22;13371;52.080;5.624;2023-03-11T13:47:45;11.00;77.60
25450;DHT22;13371;52.080;5.624;2023-03-11T13:50:23;11.10;69.90
25450;DHT22;13371;52.080;5.624;2023-03-11T13:52:51;11.50;76.50
25450;DHT22;13371;52.080;5.624;2023-03-11T13:55:27;11.80;72.90
25450;DHT22;13371;52.080;5.624;2023-03-11T13:57:55;12.10;70.60
25450;DHT22;13371;52.080;5.624;2023-03-11T14:00:27;12.30;72.10
25450;DHT22;13371;52.080;5.624;2023-03-11T14:02:59;12.00;70.10
25450;DHT22;13371;52.080;5.624;2023-03-11T14:05:34;11.90;70.00
25450;DHT22;13371;52.080;5.624;2023-03-11T14:08:34;11.60;70.30
25450;DHT22;13371;52.080;5.624;2023-03-11T14:11:15;11.60;70.20
25450;DHT22;13371;52.080;5.624;2023-03-11T14:13:46;11.60;72.70
25450;DHT22;13371;52.080;5.624;2023-03-11T14:16:33;11.50;75.10
25450;DHT22;13371;52.080;5.624;2023-03-11T14:19:17;11.40;73.90
25450;DHT22;13371;52.080;5.624;2023-03-11T14:21:45;11.00;72.80
25450;DHT22;13371;52.080;5.624;2023-03-11T14:24:24;10.90;67.80
25450;DHT22;13371;52.080;5.624;2023-03-11T14:26:55;10.90;67.60
25450;DHT22;13371;52.080;5.624;2023-03-11T14:29:39;11.10;70.50
25450;DHT22;13371;52.080;5.624;2023-03-11T14:32:27;10.90;68.30
25450;DHT22;13371;52.080;5.624;2023-03-11T14:34:54;10.50;72.00
25450;DHT22;13371;52.080;5.624;2023-03-11T14:37:24;10.50;73.10
25450;DHT22;13371;52.080;5.624;2023-03-11T14:39:50;10.80;70.20
25450;DHT22;13371;52.080;5.624;2023-03-11T14:42:33;10.90;74.80
25450;DHT22;13371;52.080;5.624;2023-03-11T14:45:03;11.20;72.90
25450;DHT22;13371;52.080;5.624;2023-03-11T14:50:27;10.40;70.30
25450;DHT22;13371;52.080;5.624;2023-03-11T14:53:07;10.50;71.50
25450;DHT22;13371;52.080;5.624;2023-03-11T14:58:36;10.10;67.60
25450;DHT22;13371;52.080;5.624;2023-03-11T15:01:09;9.80;67.50
25450;DHT22;13371;52.080;5.624;2023-03-11T15:03:43;9.90;70.60
25450;DHT22;13371;52.080;5.624;2023-03-11T15:06:18;10.50;67.20
25450;DHT22;13371;52.080;5.624;2023-03-11T15:08:50;10.50;66.60
25450;DHT22;13371;52.080;5.624;2023-03-11T15:11:19;10.40;69.30
25450;DHT22;13371;52.080;5.624;2023-03-11T15:13:47;10.70;68.30
25450;DHT22;13371;52.080;5.624;2023-03-11T15:16:28;10.90;65.90
25450;DHT22;13371;52.080;5.624;2023-03-11T15:18:54;11.00;65.60
25450;DHT22;13371;52.080;5.624;2023-03-11T15:21:22;10.80;68.30
25450;DHT22;13371;52.080;5.624;2023-03-11T15:24:00;10.30;66.30
25450;DHT22;13371;52.080;5.624;2023-03-11T15:26:32;9.90;65.90
25450;DHT22;13371;52.080;5.624;2023-03-11T15:28:59;10.30;65.30
25450;DHT22;13371;52.080;5.624;2023-03-11T15:31:28;10.20;62.10
25450;DHT22;13371;52.080;5.624;2023-03-11T15:34:07;10.60;63.80
25450;DHT22;13371;52.080;5.624;2023-03-11T15:36:35;11.10;65.10
25450;DHT22;13371;52.080;5.624;2023-03-11T15:39:18;10.90;60.40
25450;DHT22;13371;52.080;5.624;2023-03-11T15:41:46;11.10;60.80
25450;DHT22;13371;52.080;5.624;2023-03-11T15:44:33;11.40;62.40
25450;DHT22;13371;52.080;5.624;2023-03-11T15:47:00;11.40;58.80
25450;DHT22;13371;52.080;5.624;2023-03-11T15:49:27;11.40;59.30
25450;DHT22;13371;52.080;5.624;2023-03-11T15:51:58;11.10;60.80
25450;DHT22;13371;52.080;5.624;2023-03-11T15:54:24;11.20;63.50
25450;DHT22;13371;52.080;5.624;2023-03-11T15:56:49;11.00;59.60
25450;DHT22;13371;52.080;5.624;2023-03-11T15:59:16;11.00;59.20
25450;DHT22;13371;52.080;5.624;2023-03-11T16:01:42;10.90;61.00
25450;DHT22;13371;52.080;5.624;2023-03-11T16:04:16;10.60;62.70
25450;DHT22;13371;52.080;5.624;2023-03-11T16:06:42;11.00;59.20
25450;DHT22;13371;52.080;5.624;2023-03-11T16:09:08;11.10;59.40
25450;DHT22;13371;52.080;5.624;2023-03-11T16:11:35;10.70;59.50
25450;DHT22;13371;52.080;5.624;2023-03-11T16:14:00;10.90;60.70
25450;DHT22;13371;52.080;5.624;2023-03-11T16:16:26;10.80;61.40
25450;DHT22;13371;52.080;5.624;2023-03-11T16:18:53;10.70;60.30
25450;DHT22;13371;52.080;5.624;2023-03-11T16:21:20;10.90;60.50
25450;DHT22;13371;52.080;5.624;2023-03-11T16:23:48;10.80;61.50
25450;DHT22;13371;52.080;5.624;2023-03-11T16:26:14;10.40;59.60
25450;DHT22;13371;52.080;5.624;2023-03-11T16:28:39;10.60;62.10
25450;DHT22;13371;52.080;5.624;2023-03-11T16:31:06;10.30;59.40
25450;DHT22;13371;52.080;5.624;2023-03-11T16:33:35;10.00;61.30
25450;DHT22;13371;52.080;5.624;2023-03-11T16:36:02;10.00;61.80
25450;DHT22;13371;52.080;5.624;2023-03-11T16:38:28;10.00;62.30
25450;DHT22;13371;52.080;5.624;2023-03-11T16:40:59;10.00;62.60
25450;DHT22;13371;52.080;5.624;2023-03-11T16:43:26;10.10;63.40
25450;DHT22;13371;52.080;5.624;2023-03-11T16:45:52;9.80;62.10
25450;DHT22;13371;52.080;5.624;2023-03-11T16:48:20;9.80;65.60
25450;DHT22;13371;52.080;5.624;2023-03-11T16:50:46;9.70;63.70
25450;DHT22;13371;52.080;5.624;2023-03-11T16:53:11;9.70;65.50
25450;DHT22;13371;52.080;5.624;2023-03-11T16:55:40;9.80;63.70
25450;DHT22;13371;52.080;5.624;2023-03-11T16:58:06;9.70;62.70
25450;DHT22;13371;52.080;5.624;2023-03-11T17:00:32;9.70;64.60
25450;DHT22;13371;52.080;5.624;2023-03-11T17:02:57;9.80;62.70
25450;DHT22;13371;52.080;5.624;2023-03-11T17:05:23;9.80;62.50
25450;DHT22;13371;52.080;5.624;2023-03-11T17:07:55;9.90;63.10
25450;DHT22;13371;52.080;5.624;2023-03-11T17:10:25;9.80;62.60
25450;DHT22;13371;52.080;5.624;2023-03-11T17:12:51;9.70;62.20
25450;DHT22;13371;52.080;5.624;2023-03-11T17:15:17;9.80;63.50